Palouse, Washington
Current Conditions -  °F | °C
As of 2:53 PM on Tuesday 27 Jan 2015 (Local Time) from KPUW Reporting Station
Clear Clear  
Wind Chill: 51°   Ceiling: Unl
Heat Index: 51°   Visibility: 10mi
Dew Point: 39°   Wind: 6mph
Humidity: 63%   Direction: 240°WSW
Pressure: 30.02"   Gusts: NA
Location:  46.91°N, 117.08°W
Report Text: KPUW 272253Z AUTO 24005KT 10SM CLR 11/04 A3002 RMK AO2 SLP173 T01060039
Loading
Personal Weather Stations






























Interactive Weather Map New forecast layout! Learn more

10-Day Weather Forecast

Advertisements
Track Severe Weather on mobile